aviador You're here:

KCUT Decoded Metar

CUSTER in SD, USA
Report Time2018-07-19 04:53:00
UTC Time2018-07-19 05:43:30
Flight Rules vfr VFR
Wind220° at 04 kt
W.Decomp.*RWY 26: 2.5 kt HW 3.1 kt LCW
W.Rank220° ranks 26
Current wind is below 220° avg. (5.6)
Visibility9999 m
Phenomena:N/A
Clouds:N/A
Expected CloudBase > 2,800 ft AGL from Temp-Dew spread
CeilingNone
Temp17°C (ISA +13)
Dew Point10°C (64% RH)
AAT15.6°C
QNH1020 hPa
Density Alt7,139 ft
Elevation5,659 ft
Report Wrong Elevation
Raw Report
KCUT 190453Z AUTO 22004KT 10SM CLR 17/10 A3012 RMK AO2 SLP131
T01720100=

Extra information for KCUT:More info

Metar Taf Metar & Taf Last 4 Metars F.Rules Stats Wind Profile Meteogram Temp Stats Airport Information Weather charts Add Link Nearby VenuesMetar ALERT Operation Metar Decoded Social comments

AIRNAV info for KCUT